sensor_id;sensor_type;location;lat;lon;timestamp;pressure;altitude;pressure_sealevel;temperature;humidity
19811;BME280;10065;49.632;8.346;2024-03-23T08:20:29;100114.00;;;12.16;58.29
19811;BME280;10065;49.632;8.346;2024-03-23T08:22:59;100112.63;;;12.61;58.75
19811;BME280;10065;49.632;8.346;2024-03-23T08:25:30;100119.81;;;12.99;57.97
19811;BME280;10065;49.632;8.346;2024-03-23T08:28:23;100125.88;;;13.32;54.25
19811;BME280;10065;49.632;8.346;2024-03-23T08:31:08;100130.81;;;13.97;53.02
19811;BME280;10065;49.632;8.346;2024-03-23T08:33:44;100123.22;;;15.34;48.90
19811;BME280;10065;49.632;8.346;2024-03-23T08:36:29;100119.09;;;17.96;43.73
19811;BME280;10065;49.632;8.346;2024-03-23T08:39:10;100120.25;;;19.70;39.89
19811;BME280;10065;49.632;8.346;2024-03-23T08:41:36;100132.19;;;20.61;37.86
19811;BME280;10065;49.632;8.346;2024-03-23T08:44:04;100130.91;;;22.57;34.22
19811;BME280;10065;49.632;8.346;2024-03-23T08:46:31;100132.00;;;23.99;31.34
19811;BME280;10065;49.632;8.346;2024-03-23T08:48:58;100130.25;;;25.54;30.02
19811;BME280;10065;49.632;8.346;2024-03-23T08:51:26;100144.44;;;27.15;27.31
19811;BME280;10065;49.632;8.346;2024-03-23T08:53:53;100142.50;;;25.56;28.34
19811;BME280;10065;49.632;8.346;2024-03-23T08:56:20;100139.47;;;23.63;29.98
19811;BME280;10065;49.632;8.346;2024-03-23T08:58:47;100149.50;;;22.11;31.97
19811;BME280;10065;49.632;8.346;2024-03-23T09:01:13;100150.34;;;21.64;32.56
19811;BME280;10065;49.632;8.346;2024-03-23T09:03:40;100143.84;;;23.01;32.02
19811;BME280;10065;49.632;8.346;2024-03-23T09:06:07;100137.63;;;23.52;30.93
19811;BME280;10065;49.632;8.346;2024-03-23T09:08:36;100146.03;;;23.16;30.49
19811;BME280;10065;49.632;8.346;2024-03-23T09:11:04;100148.72;;;22.23;31.58
19811;BME280;10065;49.632;8.346;2024-03-23T09:13:33;100146.50;;;21.42;32.63
19811;BME280;10065;49.632;8.346;2024-03-23T09:15:59;100148.31;;;20.86;33.79
19811;BME280;10065;49.632;8.346;2024-03-23T09:18:26;100151.69;;;23.14;31.50
19811;BME280;10065;49.632;8.346;2024-03-23T09:20:52;100145.38;;;24.51;29.33
19811;BME280;10065;49.632;8.346;2024-03-23T09:23:21;100146.63;;;24.82;28.75
19811;BME280;10065;49.632;8.346;2024-03-23T09:25:49;100142.16;;;26.60;26.52
19811;BME280;10065;49.632;8.346;2024-03-23T09:28:16;100135.22;;;27.26;25.63
19811;BME280;10065;49.632;8.346;2024-03-23T09:30:42;100147.47;;;25.59;26.72
19811;BME280;10065;49.632;8.346;2024-03-23T09:33:10;100148.41;;;23.64;28.37
19811;BME280;10065;49.632;8.346;2024-03-23T09:35:37;100148.84;;;22.28;30.10
19811;BME280;10065;49.632;8.346;2024-03-23T09:38:04;100145.47;;;21.24;31.28
19811;BME280;10065;49.632;8.346;2024-03-23T09:40:31;100148.22;;;20.25;32.56
19811;BME280;10065;49.632;8.346;2024-03-23T09:42:59;100144.72;;;19.55;33.87
19811;BME280;10065;49.632;8.346;2024-03-23T09:45:27;100144.75;;;19.42;34.06
19811;BME280;10065;49.632;8.346;2024-03-23T09:47:55;100144.22;;;19.20;33.24
19811;BME280;10065;49.632;8.346;2024-03-23T09:50:21;100147.00;;;18.87;33.98
19811;BME280;10065;49.632;8.346;2024-03-23T09:52:48;100151.13;;;18.24;34.32
19811;BME280;10065;49.632;8.346;2024-03-23T09:55:15;100148.06;;;17.59;35.23
19811;BME280;10065;49.632;8.346;2024-03-23T09:57:42;100144.06;;;16.95;35.58
19811;BME280;10065;49.632;8.346;2024-03-23T10:00:11;100152.28;;;16.37;36.37
19811;BME280;10065;49.632;8.346;2024-03-23T10:02:38;100152.56;;;16.00;37.12
19811;BME280;10065;49.632;8.346;2024-03-23T10:05:05;100149.91;;;15.64;37.63
19811;BME280;10065;49.632;8.346;2024-03-23T10:07:47;100151.16;;;15.17;37.93
19811;BME280;10065;49.632;8.346;2024-03-23T10:10:15;100149.34;;;15.03;38.08
19811;BME280;10065;49.632;8.346;2024-03-23T10:12:45;100143.25;;;14.94;38.74
19811;BME280;10065;49.632;8.346;2024-03-23T10:15:18;100151.16;;;14.88;39.13
19811;BME280;10065;49.632;8.346;2024-03-23T10:17:46;100144.44;;;14.92;39.21
19811;BME280;10065;49.632;8.346;2024-03-23T10:20:12;100152.44;;;15.36;38.51
19811;BME280;10065;49.632;8.346;2024-03-23T10:22:39;100151.06;;;15.25;38.04
19811;BME280;10065;49.632;8.346;2024-03-23T10:25:09;100152.38;;;15.00;38.81
19811;BME280;10065;49.632;8.346;2024-03-23T10:27:36;100150.91;;;15.12;38.74
19811;BME280;10065;49.632;8.346;2024-03-23T10:30:10;100154.81;;;15.31;38.90
19811;BME280;10065;49.632;8.346;2024-03-23T10:32:39;100150.06;;;16.62;36.63
19811;BME280;10065;49.632;8.346;2024-03-23T10:35:16;100144.72;;;17.44;35.21
19811;BME280;10065;49.632;8.346;2024-03-23T10:37:44;100149.50;;;17.08;35.18
19811;BME280;10065;49.632;8.346;2024-03-23T10:40:12;100150.13;;;16.54;35.39
19811;BME280;10065;49.632;8.346;2024-03-23T10:42:39;100143.31;;;16.02;35.20
19811;BME280;10065;49.632;8.346;2024-03-23T10:45:07;100149.41;;;15.75;35.97
19811;BME280;10065;49.632;8.346;2024-03-23T10:47:35;100144.59;;;15.34;36.80
19811;BME280;10065;49.632;8.346;2024-03-23T10:50:03;100140.38;;;14.96;37.25
19811;BME280;10065;49.632;8.346;2024-03-23T10:52:31;100146.72;;;14.65;37.86
19811;BME280;10065;49.632;8.346;2024-03-23T10:54:57;100151.84;;;14.52;38.95
19811;BME280;10065;49.632;8.346;2024-03-23T10:57:29;100152.41;;;14.48;38.99
19811;BME280;10065;49.632;8.346;2024-03-23T10:59:58;100168.75;;;14.45;39.46
19811;BME280;10065;49.632;8.346;2024-03-23T11:02:25;100189.00;;;14.39;39.48
19811;BME280;10065;49.632;8.346;2024-03-23T11:04:52;100195.31;;;14.15;41.29
19811;BME280;10065;49.632;8.346;2024-03-23T11:07:31;100200.00;;;13.82;42.85
19811;BME280;10065;49.632;8.346;2024-03-23T11:10:00;100194.13;;;13.64;45.46
19811;BME280;10065;49.632;8.346;2024-03-23T11:12:31;100171.72;;;16.03;42.77
19811;BME280;10065;49.632;8.346;2024-03-23T11:15:01;100158.91;;;22.21;32.99
19811;BME280;10065;49.632;8.346;2024-03-23T11:17:29;100158.78;;;24.12;29.41
19811;BME280;10065;49.632;8.346;2024-03-23T11:19:56;100176.16;;;23.19;29.22
19811;BME280;10065;49.632;8.346;2024-03-23T11:22:44;100167.97;;;21.12;31.85
19811;BME280;10065;49.632;8.346;2024-03-23T11:25:16;100157.25;;;19.23;34.43
19811;BME280;10065;49.632;8.346;2024-03-23T11:27:44;100151.88;;;17.72;36.55
19811;BME280;10065;49.632;8.346;2024-03-23T11:30:16;100156.84;;;19.71;35.23
19811;BME280;10065;49.632;8.346;2024-03-23T11:32:44;100157.03;;;19.25;34.25
19811;BME280;10065;49.632;8.346;2024-03-23T11:35:11;100162.63;;;17.85;36.74
19811;BME280;10065;49.632;8.346;2024-03-23T11:38:03;100156.69;;;18.09;36.94
19811;BME280;10065;49.632;8.346;2024-03-23T11:40:29;100155.75;;;17.62;37.61
19811;BME280;10065;49.632;8.346;2024-03-23T11:42:58;100154.00;;;16.73;38.97
19811;BME280;10065;49.632;8.346;2024-03-23T11:45:24;100142.63;;;16.64;39.81
19811;BME280;10065;49.632;8.346;2024-03-23T11:48:05;100142.72;;;17.12;39.03
19811;BME280;10065;49.632;8.346;2024-03-23T11:50:31;100136.28;;;17.47;39.09
19811;BME280;10065;49.632;8.346;2024-03-23T11:53:13;100142.88;;;18.78;37.45
19811;BME280;10065;49.632;8.346;2024-03-23T11:55:46;100139.25;;;20.06;35.31
19811;BME280;10065;49.632;8.346;2024-03-23T11:58:14;100131.38;;;21.22;33.27
19811;BME280;10065;49.632;8.346;2024-03-23T12:00:41;100135.53;;;20.32;32.71
19811;BME280;10065;49.632;8.346;2024-03-23T12:03:08;100136.44;;;18.92;34.44
19811;BME280;10065;49.632;8.346;2024-03-23T12:05:36;100137.44;;;17.79;36.20
19811;BME280;10065;49.632;8.346;2024-03-23T12:08:22;100145.53;;;16.97;37.72
19811;BME280;10065;49.632;8.346;2024-03-23T12:10:51;100131.28;;;16.34;38.46
19811;BME280;10065;49.632;8.346;2024-03-23T12:13:18;100122.78;;;15.67;39.80
19811;BME280;10065;49.632;8.346;2024-03-23T12:15:46;100107.81;;;14.86;41.06
19811;BME280;10065;49.632;8.346;2024-03-23T12:18:12;100131.63;;;14.35;42.50
19811;BME280;10065;49.632;8.346;2024-03-23T12:20:40;100143.91;;;14.07;43.87
19811;BME280;10065;49.632;8.346;2024-03-23T12:23:07;100145.44;;;13.78;43.82
19811;BME280;10065;49.632;8.346;2024-03-23T12:25:39;100141.59;;;13.50;43.68
19811;BME280;10065;49.632;8.346;2024-03-23T12:28:06;100134.34;;;13.36;43.71
19811;BME280;10065;49.632;8.346;2024-03-23T12:30:35;100133.34;;;13.37;43.41
19811;BME280;10065;49.632;8.346;2024-03-23T12:33:01;100126.94;;;13.46;43.74
19811;BME280;10065;49.632;8.346;2024-03-23T12:35:29;100120.94;;;13.52;43.73
19811;BME280;10065;49.632;8.346;2024-03-23T12:37:55;100136.81;;;13.45;43.44
19811;BME280;10065;49.632;8.346;2024-03-23T12:40:22;100136.81;;;13.37;43.56
19811;BME280;10065;49.632;8.346;2024-03-23T12:42:50;100147.72;;;13.11;43.73
19811;BME280;10065;49.632;8.346;2024-03-23T12:45:17;100124.88;;;12.78;44.88
19811;BME280;10065;49.632;8.346;2024-03-23T12:47:43;100140.72;;;12.63;45.63
19811;BME280;10065;49.632;8.346;2024-03-23T12:50:11;100128.25;;;12.56;45.64
19811;BME280;10065;49.632;8.346;2024-03-23T12:52:37;100124.63;;;12.49;45.88
19811;BME280;10065;49.632;8.346;2024-03-23T12:55:04;100146.53;;;12.51;45.78
19811;BME280;10065;49.632;8.346;2024-03-23T12:57:31;100145.19;;;12.71;45.39
19811;BME280;10065;49.632;8.346;2024-03-23T13:00:01;100137.81;;;12.89;45.92
19811;BME280;10065;49.632;8.346;2024-03-23T13:02:27;100139.44;;;13.06;46.54
19811;BME280;10065;49.632;8.346;2024-03-23T13:04:54;100132.31;;;13.38;46.70
19811;BME280;10065;49.632;8.346;2024-03-23T13:07:22;100125.03;;;13.85;45.78
19811;BME280;10065;49.632;8.346;2024-03-23T13:09:50;100134.03;;;14.07;45.48
19811;BME280;10065;49.632;8.346;2024-03-23T13:12:17;100121.53;;;14.30;45.21
19811;BME280;10065;49.632;8.346;2024-03-23T13:14:45;100110.53;;;14.48;44.57
19811;BME280;10065;49.632;8.346;2024-03-23T13:17:12;100116.25;;;14.45;44.08
19811;BME280;10065;49.632;8.346;2024-03-23T13:19:40;100113.69;;;14.66;43.56
19811;BME280;10065;49.632;8.346;2024-03-23T13:22:06;100115.72;;;14.79;43.33
19811;BME280;10065;49.632;8.346;2024-03-23T13:24:34;100125.09;;;14.60;43.07
19811;BME280;10065;49.632;8.346;2024-03-23T13:27:00;100116.81;;;14.55;42.57
19811;BME280;10065;49.632;8.346;2024-03-23T13:29:26;100115.50;;;14.51;42.91
19811;BME280;10065;49.632;8.346;2024-03-23T13:31:53;100113.88;;;14.50;42.54
19811;BME280;10065;49.632;8.346;2024-03-23T13:34:21;100130.22;;;14.47;42.69
19811;BME280;10065;49.632;8.346;2024-03-23T13:36:47;100110.47;;;14.56;42.91
19811;BME280;10065;49.632;8.346;2024-03-23T13:39:15;100105.47;;;14.53;42.88
19811;BME280;10065;49.632;8.346;2024-03-23T13:41:43;100105.22;;;14.48;42.49
19811;BME280;10065;49.632;8.346;2024-03-23T13:44:14;100106.63;;;14.36;41.95
19811;BME280;10065;49.632;8.346;2024-03-23T13:46:44;100106.44;;;14.23;42.46
19811;BME280;10065;49.632;8.346;2024-03-23T13:49:24;100105.50;;;14.16;42.52
19811;BME280;10065;49.632;8.346;2024-03-23T13:51:53;100106.56;;;14.07;42.52
19811;BME280;10065;49.632;8.346;2024-03-23T13:54:20;100107.16;;;13.94;42.20
19811;BME280;10065;49.632;8.346;2024-03-23T13:56:49;100095.72;;;13.85;42.73
19811;BME280;10065;49.632;8.346;2024-03-23T13:59:16;100099.69;;;13.67;41.13
19811;BME280;10065;49.632;8.346;2024-03-23T14:01:44;100093.53;;;13.43;41.06
19811;BME280;10065;49.632;8.346;2024-03-23T14:04:11;100088.06;;;13.37;41.58
19811;BME280;10065;49.632;8.346;2024-03-23T14:06:40;100087.78;;;13.24;40.82
19811;BME280;10065;49.632;8.346;2024-03-23T14:09:08;100091.19;;;13.09;41.33
19811;BME280;10065;49.632;8.346;2024-03-23T14:11:36;100091.84;;;13.03;41.59
19811;BME280;10065;49.632;8.346;2024-03-23T14:14:03;100097.53;;;13.00;42.08
19811;BME280;10065;49.632;8.346;2024-03-23T14:16:32;100090.59;;;12.91;43.48
19811;BME280;10065;49.632;8.346;2024-03-23T14:18:59;100094.41;;;12.89;44.38
19811;BME280;10065;49.632;8.346;2024-03-23T14:21:27;100094.72;;;12.94;44.59
19811;BME280;10065;49.632;8.346;2024-03-23T14:23:55;100088.19;;;13.04;45.06
19811;BME280;10065;49.632;8.346;2024-03-23T14:26:23;100091.56;;;12.98;46.47
19811;BME280;10065;49.632;8.346;2024-03-23T14:28:50;100081.19;;;13.03;46.29
19811;BME280;10065;49.632;8.346;2024-03-23T14:31:19;100088.81;;;13.23;46.03
19811;BME280;10065;49.632;8.346;2024-03-23T14:33:47;100078.84;;;13.47;45.76
19811;BME280;10065;49.632;8.346;2024-03-23T14:36:29;100085.97;;;13.78;45.11
19811;BME280;10065;49.632;8.346;2024-03-23T14:39:02;100098.06;;;13.88;44.83
19811;BME280;10065;49.632;8.346;2024-03-23T14:41:29;100072.16;;;13.74;44.01
19811;BME280;10065;49.632;8.346;2024-03-23T14:43:56;100077.78;;;13.56;44.75
19811;BME280;10065;49.632;8.346;2024-03-23T14:46:23;100094.13;;;13.53;45.14
19811;BME280;10065;49.632;8.346;2024-03-23T14:48:51;100088.19;;;13.43;45.23
19811;BME280;10065;49.632;8.346;2024-03-23T14:51:17;100083.09;;;13.34;43.52
19811;BME280;10065;49.632;8.346;2024-03-23T14:53:45;100095.50;;;13.18;44.20
19811;BME280;10065;49.632;8.346;2024-03-23T14:56:13;100105.34;;;12.94;45.19
19811;BME280;10065;49.632;8.346;2024-03-23T14:58:45;100107.25;;;12.77;45.55
19811;BME280;10065;49.632;8.346;2024-03-23T15:01:11;100117.59;;;12.64;45.20
19811;BME280;10065;49.632;8.346;2024-03-23T15:03:40;100104.41;;;12.78;45.33
19811;BME280;10065;49.632;8.346;2024-03-23T15:06:06;100114.91;;;12.72;46.88
19811;BME280;10065;49.632;8.346;2024-03-23T15:08:37;100091.81;;;12.72;46.69
19811;BME280;10065;49.632;8.346;2024-03-23T15:11:03;100065.97;;;12.89;45.84
19811;BME280;10065;49.632;8.346;2024-03-23T15:13:37;100053.78;;;12.95;45.23
19811;BME280;10065;49.632;8.346;2024-03-23T15:16:05;100047.78;;;13.01;44.41
19811;BME280;10065;49.632;8.346;2024-03-23T15:18:32;100052.59;;;13.05;44.29
19811;BME280;10065;49.632;8.346;2024-03-23T15:21:03;100057.19;;;13.11;44.10
19811;BME280;10065;49.632;8.346;2024-03-23T15:23:33;100065.66;;;13.23;43.33
19811;BME280;10065;49.632;8.346;2024-03-23T15:26:02;100073.16;;;13.28;42.29
19811;BME280;10065;49.632;8.346;2024-03-23T15:28:30;100071.94;;;13.30;42.29
19811;BME280;10065;49.632;8.346;2024-03-23T15:31:22;100071.34;;;13.20;42.61
19811;BME280;10065;49.632;8.346;2024-03-23T15:33:49;100082.19;;;13.10;42.33
19811;BME280;10065;49.632;8.346;2024-03-23T15:36:19;100077.06;;;13.01;42.95
19811;BME280;10065;49.632;8.346;2024-03-23T15:38:45;100080.56;;;13.01;43.22
19811;BME280;10065;49.632;8.346;2024-03-23T15:41:15;100100.56;;;12.89;43.64
19811;BME280;10065;49.632;8.346;2024-03-23T15:43:41;100083.31;;;12.69;46.11
19811;BME280;10065;49.632;8.346;2024-03-23T15:46:10;100056.25;;;12.65;46.95
19811;BME280;10065;49.632;8.346;2024-03-23T15:48:39;100061.56;;;12.65;47.30
19811;BME280;10065;49.632;8.346;2024-03-23T15:51:27;100065.38;;;12.71;47.33
19811;BME280;10065;49.632;8.346;2024-03-23T15:53:59;100068.06;;;12.63;48.01
19811;BME280;10065;49.632;8.346;2024-03-23T15:56:26;100062.75;;;12.55;48.80
19811;BME280;10065;49.632;8.346;2024-03-23T15:58:55;100056.00;;;12.36;49.66
19811;BME280;10065;49.632;8.346;2024-03-23T16:01:29;100060.16;;;12.14;49.70
19811;BME280;10065;49.632;8.346;2024-03-23T16:04:04;100058.88;;;12.10;49.93
19811;BME280;10065;49.632;8.346;2024-03-23T16:06:35;100051.22;;;11.91;50.25
19811;BME280;10065;49.632;8.346;2024-03-23T16:09:01;100058.88;;;11.86;50.77
19811;BME280;10065;49.632;8.346;2024-03-23T16:11:30;100053.19;;;11.73;51.29
19811;BME280;10065;49.632;8.346;2024-03-23T16:13:56;100053.84;;;11.66;51.93
19811;BME280;10065;49.632;8.346;2024-03-23T16:16:24;100046.88;;;11.65;52.05
19811;BME280;10065;49.632;8.346;2024-03-23T16:18:52;100063.47;;;11.59;51.94
19811;BME280;10065;49.632;8.346;2024-03-23T16:21:24;100047.88;;;11.64;52.00
19811;BME280;10065;49.632;8.346;2024-03-23T16:23:51;100061.47;;;11.53;52.12
19811;BME280;10065;49.632;8.346;2024-03-23T16:26:20;100057.31;;;11.43;52.44
19811;BME280;10065;49.632;8.346;2024-03-23T16:28:47;100061.94;;;11.32;52.67
19811;BME280;10065;49.632;8.346;2024-03-23T16:31:14;100055.44;;;11.19;53.16
19811;BME280;10065;49.632;8.346;2024-03-23T16:33:41;100057.22;;;11.02;53.88
19811;BME280;10065;49.632;8.346;2024-03-23T16:36:09;100061.28;;;10.80;54.90
19811;BME280;10065;49.632;8.346;2024-03-23T16:39:00;100069.88;;;10.82;54.75
19811;BME280;10065;49.632;8.346;2024-03-23T16:41:27;100075.53;;;10.79;55.12
19811;BME280;10065;49.632;8.346;2024-03-23T16:43:54;100067.44;;;10.89;54.77
19811;BME280;10065;49.632;8.346;2024-03-23T16:46:24;100067.59;;;10.87;54.51
19811;BME280;10065;49.632;8.346;2024-03-23T16:48:51;100067.56;;;10.79;54.49
19811;BME280;10065;49.632;8.346;2024-03-23T16:51:19;100057.66;;;10.81;54.59
19811;BME280;10065;49.632;8.346;2024-03-23T16:53:46;100057.13;;;10.78;54.87
19811;BME280;10065;49.632;8.346;2024-03-23T16:56:15;100055.44;;;10.77;54.97
19811;BME280;10065;49.632;8.346;2024-03-23T16:58:41;100045.16;;;10.74;54.66
19811;BME280;10065;49.632;8.346;2024-03-23T17:01:12;100033.72;;;10.73;53.82
19811;BME280;10065;49.632;8.346;2024-03-23T17:03:46;100039.31;;;10.62;53.08
19811;BME280;10065;49.632;8.346;2024-03-23T17:06:14;100030.00;;;10.58;53.03
19811;BME280;10065;49.632;8.346;2024-03-23T17:08:41;100030.34;;;10.55;52.86
19811;BME280;10065;49.632;8.346;2024-03-23T17:11:11;100019.00;;;10.37;52.26
19811;BME280;10065;49.632;8.346;2024-03-23T17:13:38;100011.25;;;10.17;52.60
19811;BME280;10065;49.632;8.346;2024-03-23T17:16:16;100013.50;;;10.12;52.88
19811;BME280;10065;49.632;8.346;2024-03-23T17:18:43;100020.25;;;10.07;52.82
19811;BME280;10065;49.632;8.346;2024-03-23T17:21:13;100021.38;;;10.04;52.92
19811;BME280;10065;49.632;8.346;2024-03-23T17:23:42;100019.41;;;10.06;53.21
19811;BME280;10065;49.632;8.346;2024-03-23T17:26:16;100016.03;;;9.96;53.43
19811;BME280;10065;49.632;8.346;2024-03-23T17:28:47;100007.09;;;9.97;53.49
19811;BME280;10065;49.632;8.346;2024-03-23T17:31:15;100013.38;;;9.96;53.30
19811;BME280;10065;49.632;8.346;2024-03-23T17:33:42;100019.91;;;10.02;53.30
19811;BME280;10065;49.632;8.346;2024-03-23T17:36:11;100013.59;;;10.03;53.33
19811;BME280;10065;49.632;8.346;2024-03-23T17:38:39;100017.31;;;10.10;53.37
19811;BME280;10065;49.632;8.346;2024-03-23T17:41:07;100022.41;;;10.11;53.17
19811;BME280;10065;49.632;8.346;2024-03-23T17:46:35;100038.94;;;10.05;53.46
19811;BME280;10065;49.632;8.346;2024-03-23T17:49:02;100047.59;;;10.07;53.35
19811;BME280;10065;49.632;8.346;2024-03-23T17:51:51;100043.94;;;10.08;53.40
19811;BME280;10065;49.632;8.346;2024-03-23T17:54:21;100046.22;;;10.03;53.43
19811;BME280;10065;49.632;8.346;2024-03-23T17:56:48;100060.13;;;10.05;53.50
19811;BME280;10065;49.632;8.346;2024-03-23T17:59:16;100049.97;;;9.93;53.70
19811;BME280;10065;49.632;8.346;2024-03-23T18:01:43;100050.47;;;9.96;53.83
19811;BME280;10065;49.632;8.346;2024-03-23T18:04:11;100063.56;;;9.98;53.74
19811;BME280;10065;49.632;8.346;2024-03-23T18:06:37;100055.09;;;9.94;53.90
19811;BME280;10065;49.632;8.346;2024-03-23T18:09:05;100050.25;;;9.90;54.24
19811;BME280;10065;49.632;8.346;2024-03-23T18:11:31;100052.22;;;9.88;54.40
19811;BME280;10065;49.632;8.346;2024-03-23T18:13:59;100051.72;;;9.84;54.48
19811;BME280;10065;49.632;8.346;2024-03-23T18:16:25;100058.28;;;9.80;54.75
19811;BME280;10065;49.632;8.346;2024-03-23T18:18:54;100065.69;;;9.76;54.82
19811;BME280;10065;49.632;8.346;2024-03-23T18:21:20;100067.69;;;9.74;54.97
19811;BME280;10065;49.632;8.346;2024-03-23T18:23:47;100071.31;;;9.73;55.04
19811;BME280;10065;49.632;8.346;2024-03-23T18:26:14;100076.06;;;9.70;55.25
19811;BME280;10065;49.632;8.346;2024-03-23T18:28:42;100068.06;;;9.62;55.72
19811;BME280;10065;49.632;8.346;2024-03-23T18:31:16;100068.34;;;9.59;55.78
19811;BME280;10065;49.632;8.346;2024-03-23T18:33:43;100072.31;;;9.55;56.02
19811;BME280;10065;49.632;8.346;2024-03-23T18:36:12;100073.19;;;9.46;56.46
19811;BME280;10065;49.632;8.346;2024-03-23T18:38:40;100068.19;;;9.42;56.48
19811;BME280;10065;49.632;8.346;2024-03-23T18:41:06;100064.34;;;9.37;56.71
19811;BME280;10065;49.632;8.346;2024-03-23T18:43:34;100057.53;;;9.34;57.12
19811;BME280;10065;49.632;8.346;2024-03-23T18:46:01;100056.63;;;9.26;57.36
19811;BME280;10065;49.632;8.346;2024-03-23T18:48:29;100057.78;;;9.23;57.64
19811;BME280;10065;49.632;8.346;2024-03-23T18:50:57;100059.72;;;9.21;57.57
19811;BME280;10065;49.632;8.346;2024-03-23T18:53:25;100056.63;;;9.26;57.54
19811;BME280;10065;49.632;8.346;2024-03-23T18:55:53;100057.84;;;9.31;57.46
19811;BME280;10065;49.632;8.346;2024-03-23T18:58:21;100066.38;;;9.25;57.61
19811;BME280;10065;49.632;8.346;2024-03-23T19:00:54;100068.34;;;9.23;57.77
19811;BME280;10065;49.632;8.346;2024-03-23T19:03:22;100079.59;;;9.25;57.70
19811;BME280;10065;49.632;8.346;2024-03-23T19:05:52;100082.66;;;9.30;58.71
19811;BME280;10065;49.632;8.346;2024-03-23T19:08:20;100077.66;;;9.27;58.30
19811;BME280;10065;49.632;8.346;2024-03-23T19:10:56;100078.63;;;9.26;57.93
19811;BME280;10065;49.632;8.346;2024-03-23T19:13:24;100092.16;;;9.23;58.18
19811;BME280;10065;49.632;8.346;2024-03-23T19:15:51;100084.22;;;9.23;58.16
19811;BME280;10065;49.632;8.346;2024-03-23T19:18:19;100090.94;;;9.18;58.20
19811;BME280;10065;49.632;8.346;2024-03-23T19:20:51;100094.03;;;9.13;58.39
19811;BME280;10065;49.632;8.346;2024-03-23T19:23:19;100084.03;;;9.07;58.53
19811;BME280;10065;49.632;8.346;2024-03-23T19:25:51;100088.34;;;9.08;58.54
19811;BME280;10065;49.632;8.346;2024-03-23T19:28:21;100092.66;;;9.09;58.46
19811;BME280;10065;49.632;8.346;2024-03-23T19:30:47;100089.63;;;9.04;58.58
19811;BME280;10065;49.632;8.346;2024-03-23T19:33:14;100085.31;;;9.03;58.61
19811;BME280;10065;49.632;8.346;2024-03-23T19:35:40;100089.91;;;9.01;58.41
19811;BME280;10065;49.632;8.346;2024-03-23T19:38:09;100077.97;;;8.97;58.37
19811;BME280;10065;49.632;8.346;2024-03-23T19:40:35;100077.97;;;8.97;58.48
19811;BME280;10065;49.632;8.346;2024-03-23T19:43:03;100077.44;;;8.93;58.75
19811;BME280;10065;49.632;8.346;2024-03-23T19:45:30;100074.09;;;8.91;58.85
19811;BME280;10065;49.632;8.346;2024-03-23T19:47:57;100081.03;;;8.92;58.84
19811;BME280;10065;49.632;8.346;2024-03-23T19:50:25;100077.47;;;8.84;59.06
19811;BME280;10065;49.632;8.346;2024-03-23T19:52:52;100076.78;;;8.82;59.33
19811;BME280;10065;49.632;8.346;2024-03-23T19:55:18;100067.59;;;8.86;59.25
19811;BME280;10065;49.632;8.346;2024-03-23T19:57:46;100075.22;;;8.89;59.25
19811;BME280;10065;49.632;8.346;2024-03-23T20:00:13;100075.53;;;8.86;59.34
19811;BME280;10065;49.632;8.346;2024-03-23T20:02:44;100083.31;;;8.87;59.35
19811;BME280;10065;49.632;8.346;2024-03-23T20:05:10;100078.69;;;8.89;59.46
19811;BME280;10065;49.632;8.346;2024-03-23T20:07:37;100077.72;;;8.90;59.58
19811;BME280;10065;49.632;8.346;2024-03-23T20:10:05;100082.84;;;8.92;59.57
19811;BME280;10065;49.632;8.346;2024-03-23T20:12:32;100069.34;;;8.95;59.39
19811;BME280;10065;49.632;8.346;2024-03-23T20:14:58;100070.72;;;8.99;59.21
19811;BME280;10065;49.632;8.346;2024-03-23T20:17:26;100069.03;;;8.98;59.25
19811;BME280;10065;49.632;8.346;2024-03-23T20:19:54;100066.66;;;9.04;59.05
19811;BME280;10065;49.632;8.346;2024-03-23T20:22:22;100068.16;;;9.07;59.21
19811;BME280;10065;49.632;8.346;2024-03-23T20:24:54;100056.22;;;9.03;59.26
19811;BME280;10065;49.632;8.346;2024-03-23T20:27:21;100059.84;;;9.02;59.40
19811;BME280;10065;49.632;8.346;2024-03-23T20:29:47;100053.16;;;8.98;59.40
19811;BME280;10065;49.632;8.346;2024-03-23T20:32:14;100054.47;;;8.94;59.65
19811;BME280;10065;49.632;8.346;2024-03-23T20:34:44;100059.47;;;8.97;59.71
19811;BME280;10065;49.632;8.346;2024-03-23T20:37:13;100058.47;;;8.98;59.79
19811;BME280;10065;49.632;8.346;2024-03-23T20:39:39;100053.72;;;9.01;59.82
19811;BME280;10065;49.632;8.346;2024-03-23T20:42:06;100049.88;;;8.96;59.89
19811;BME280;10065;49.632;8.346;2024-03-23T20:44:47;100052.09;;;8.91;60.08
19811;BME280;10065;49.632;8.346;2024-03-23T20:47:17;100055.72;;;8.90;60.22
19811;BME280;10065;49.632;8.346;2024-03-23T20:49:43;100050.28;;;8.91;60.12
19811;BME280;10065;49.632;8.346;2024-03-23T20:52:19;100059.59;;;8.95;59.97
19811;BME280;10065;49.632;8.346;2024-03-23T20:54:51;100055.28;;;8.94;59.90
19811;BME280;10065;49.632;8.346;2024-03-23T20:57:18;100048.47;;;8.92;59.79
19811;BME280;10065;49.632;8.346;2024-03-23T20:59:47;100048.75;;;8.89;59.89
19811;BME280;10065;49.632;8.346;2024-03-23T21:02:15;100044.88;;;8.93;59.95
19811;BME280;10065;49.632;8.346;2024-03-23T21:04:41;100043.19;;;8.92;59.95
19811;BME280;10065;49.632;8.346;2024-03-23T21:07:08;100041.25;;;8.94;59.87
19811;BME280;10065;49.632;8.346;2024-03-23T21:09:39;100051.13;;;8.92;59.96
19811;BME280;10065;49.632;8.346;2024-03-23T21:12:07;100043.06;;;8.93;59.93
19811;BME280;10065;49.632;8.346;2024-03-23T21:14:34;100042.22;;;8.93;60.07
19811;BME280;10065;49.632;8.346;2024-03-23T21:17:01;100032.81;;;8.81;60.40
19811;BME280;10065;49.632;8.346;2024-03-23T21:19:28;100031.59;;;8.75;60.53
19811;BME280;10065;49.632;8.346;2024-03-23T21:21:55;100040.34;;;8.76;60.78
19811;BME280;10065;49.632;8.346;2024-03-23T21:24:21;100029.50;;;8.79;60.76